Time;durP1;ratioP1;P1;durP2;ratioP2;P2;SDS_P1;SDS_P2;PMS_P1;PMS_P2;Temp;Humidity;BMP_temperature;BMP_pressure;BME280_temperature;BME280_humidity;BME280_pressure;Samples;Min_cycle;Max_cycle;Signal;HPM_P1;HPM_P2
2022/10/03 00:00:22;;;;;;;13.98;13.18;;;;;;;11.78;100.00;100181.03;4992926;28;20125;-66
2022/10/03 00:03:15;;;;;;;14.43;13.63;;;;;;;11.71;100.00;100174.81;4997185;28;20033;-65
2022/10/03 00:05:55;;;;;;;14.20;13.40;;;;;;;11.74;100.00;100181.59;4996694;28;20060;-65
2022/10/03 00:08:56;;;;;;;14.48;13.65;;;;;;;11.72;100.00;100178.31;4994214;28;20033;-65
2022/10/03 00:11:29;;;;;;;13.77;13.00;;;;;;;11.69;100.00;100176.03;4996903;28;20125;-65
2022/10/03 00:13:59;;;;;;;14.27;13.48;;;;;;;11.71;100.00;100182.78;4990862;28;20040;-65
2022/10/03 00:16:43;;;;;;;14.40;13.60;;;;;;;11.82;100.00;100182.31;4996609;28;20030;-65
2022/10/03 00:19:20;;;;;;;15.23;14.30;;;;;;;11.85;100.00;100184.59;4991480;28;20030;-65
2022/10/03 00:21:49;;;;;;;14.07;13.27;;;;;;;11.84;100.00;100179.47;4997781;28;20333;-64
2022/10/03 00:24:32;;;;;;;14.57;13.73;;;;;;;11.82;100.00;100181.47;4990508;28;20095;-64
2022/10/03 00:27:15;;;;;;;13.90;13.10;;;;;;;11.92;100.00;100167.88;4999866;28;20030;-65
2022/10/03 00:29:47;;;;;;;14.20;13.40;;;;;;;11.98;100.00;100170.59;4997905;28;20474;-65
2022/10/03 00:32:32;;;;;;;14.00;13.20;;;;;;;11.94;100.00;100165.84;4995011;28;20041;-65
2022/10/03 00:35:05;;;;;;;14.02;13.23;;;;;;;11.97;100.00;100154.81;4995652;28;20026;-65
2022/10/03 00:38:05;;;;;;;13.70;12.95;;;;;;;11.94;100.00;100153.38;4997669;28;20042;-65
2022/10/03 00:40:55;;;;;;;14.82;13.93;;;;;;;12.05;100.00;100152.03;4996248;28;20050;-66
2022/10/03 00:43:54;;;;;;;13.95;13.15;;;;;;;11.97;100.00;100154.81;4997299;28;20030;-65
2022/10/03 00:46:19;;;;;;;13.80;13.00;;;;;;;11.80;100.00;100147.13;4996015;28;20037;-65
2022/10/03 00:48:54;;;;;;;14.20;13.40;;;;;;;11.92;100.00;100144.78;5000740;28;20083;-65
2022/10/03 00:51:49;;;;;;;15.43;14.43;;;;;;;11.99;100.00;100142.19;4995196;28;20054;-63
2022/10/03 00:54:20;;;;;;;;;;;;;;;11.86;100.00;100138.41;4999626;28;20040;-64
2022/10/03 00:57:12;;;;;;;14.43;13.52;;;;;;;11.86;100.00;100130.41;4994910;28;19917;-64
2022/10/03 00:59:48;;;;;;;13.68;12.98;;;;;;;11.85;100.00;100126.13;4998291;28;20037;-64
2022/10/03 01:02:35;;;;;;;13.60;12.88;;;;;;;11.83;100.00;100122.84;4999499;28;20034;-65
2022/10/03 01:05:32;;;;;;;13.82;13.02;;;;;;;11.75;100.00;100122.09;4991688;28;20516;-65
2022/10/03 01:08:19;;;;;;;13.50;12.80;;;;;;;11.69;100.00;100123.72;5003652;28;20537;-65
2022/10/03 01:11:23;;;;;;;14.13;13.32;;;;;;;11.60;100.00;100123.03;5000265;28;20026;-65
2022/10/03 01:14:37;;;;;;;14.07;13.27;;;;;;;11.57;100.00;100122.59;4995720;28;20132;-64
2022/10/03 01:17:09;;;;;;;14.70;13.82;;;;;;;11.49;100.00;100114.75;4965565;28;20042;-65
2022/10/03 01:19:52;;;;;;;14.00;13.20;;;;;;;11.52;100.00;100115.16;4999078;28;20034;-65
2022/10/03 01:22:46;;;;;;;13.70;13.00;;;;;;;11.50;100.00;100116.38;4996895;28;20550;-64
2022/10/03 01:25:18;;;;;;;15.00;14.10;;;;;;;11.48;100.00;100115.75;4995943;28;20034;-65
2022/10/03 01:31:09;;;;;;;14.30;13.50;;;;;;;11.44;100.00;100117.16;4983665;28;20524;-65
2022/10/03 01:33:40;;;;;;;14.45;13.63;;;;;;;11.41;100.00;100115.69;5000430;28;20102;-65
2022/10/03 01:36:12;;;;;;;14.23;13.43;;;;;;;11.35;100.00;100101.34;4996592;28;20124;-65
2022/10/03 01:38:52;;;;;;;13.70;12.95;;;;;;;11.51;100.00;100112.72;5000025;28;20114;-65
2022/10/03 01:41:21;;;;;;;13.98;13.18;;;;;;;11.52;100.00;100115.16;4994051;28;20026;-65
2022/10/03 01:44:00;;;;;;;14.43;13.60;;;;;;;11.52;100.00;100112.50;4995728;28;20141;-64
2022/10/03 01:46:37;;;;;;;13.90;13.10;;;;;;;11.53;100.00;100116.00;4998670;28;20374;-64
2022/10/03 01:49:18;;;;;;;13.63;12.93;;;;;;;11.47;100.00;100114.94;4995075;28;20037;-64
2022/10/03 01:52:02;;;;;;;14.25;13.45;;;;;;;11.61;100.00;100116.72;4990139;28;20026;-65
2022/10/03 01:54:37;;;;;;;14.25;13.45;;;;;;;11.66;100.00;100126.75;5001607;28;20025;-65
2022/10/03 01:57:25;;;;;;;14.13;13.32;;;;;;;11.67;100.00;100124.91;5001961;28;20109;-65
2022/10/03 01:59:51;;;;;;;13.40;12.70;;;;;;;11.71;100.00;100123.53;4989544;28;20129;-65
2022/10/03 02:02:28;;;;;;;13.65;12.95;;;;;;;11.82;100.00;100121.19;4997426;28;20521;-65
2022/10/03 02:05:06;;;;;;;14.77;13.88;;;;;;;11.63;100.00;100116.50;4997674;28;20097;-64
2022/10/03 02:07:49;;;;;;;13.70;12.90;;;;;;;11.63;100.00;100119.16;4992971;28;20034;-66
2022/10/03 02:10:53;;;;;;;13.48;12.77;;;;;;;11.65;100.00;100114.47;4994087;28;20034;-65
2022/10/03 02:13:29;;;;;;;13.75;13.00;;;;;;;11.80;100.00;100115.25;4980577;28;20084;-65
2022/10/03 02:16:16;;;;;;;13.65;12.90;;;;;;;11.80;100.00;100114.38;4994498;28;20385;-65
2022/10/03 02:18:57;;;;;;;13.82;13.05;;;;;;;11.89;100.00;100110.59;4990458;28;20038;-65
2022/10/03 02:21:28;;;;;;;14.18;13.38;;;;;;;12.06;100.00;100117.28;4999127;28;20083;-65
2022/10/03 02:24:16;;;;;;;13.45;12.75;;;;;;;11.97;100.00;100110.47;4994842;28;20037;-65
2022/10/03 02:27:16;;;;;;;13.98;13.18;;;;;;;11.99;100.00;100112.94;4994299;28;20053;-65
2022/10/03 02:29:59;;;;;;;14.20;13.40;;;;;;;11.96;100.00;100108.00;5001019;28;20085;-65
2022/10/03 02:33:22;;;;;;;14.27;13.48;;;;;;;11.93;100.00;100111.03;4991663;28;20085;-65
2022/10/03 02:36:06;;;;;;;14.00;13.20;;;;;;;12.03;100.00;100111.50;4934158;29;20048;-64
2022/10/03 02:38:56;;;;;;;14.88;13.98;;;;;;;11.99;100.00;100110.28;4935081;29;20131;-65
2022/10/03 02:41:55;;;;;;;14.23;13.43;;;;;;;11.98;100.00;100109.47;4981152;28;20040;-64
2022/10/03 02:44:36;;;;;;;14.20;13.40;;;;;;;11.95;100.00;100109.00;4998204;28;20049;-65
2022/10/03 02:47:16;;;;;;;13.75;12.95;;;;;;;12.04;100.00;100100.69;4993819;28;20022;-64
2022/10/03 02:50:00;;;;;;;13.88;13.07;;;;;;;12.07;100.00;100105.63;4995980;28;20030;-64
2022/10/03 02:52:57;;;;;;;13.55;12.85;;;;;;;12.18;100.00;100104.25;5000676;28;20025;-65
2022/10/03 02:55:35;;;;;;;13.75;12.95;;;;;;;12.14;100.00;100106.50;4991059;28;20045;-66
2022/10/03 02:58:55;;;;;;;14.05;13.25;;;;;;;12.09;100.00;100106.25;4995872;28;20105;-66
2022/10/03 03:01:30;;;;;;;13.40;12.70;;;;;;;12.02;100.00;100109.88;4936595;29;20094;-65
2022/10/03 03:04:16;;;;;;;13.93;13.13;;;;;;;11.99;100.00;100105.78;4989605;28;20048;-65
2022/10/03 03:06:53;;;;;;;13.57;12.85;;;;;;;12.08;100.00;100106.44;4996343;28;20128;-66
2022/10/03 03:10:00;;;;;;;13.80;13.00;;;;;;;12.09;100.00;100098.28;4998036;28;20030;-65
2022/10/03 03:12:50;;;;;;;13.55;12.85;;;;;;;12.12;100.00;100097.06;4997498;28;20390;-65
2022/10/03 03:15:36;;;;;;;13.90;13.10;;;;;;;12.23;100.00;100096.53;5000742;28;20034;-66
2022/10/03 03:18:08;;;;;;;14.20;13.38;;;;;;;12.34;100.00;100097.81;4992368;28;20026;-65
2022/10/03 03:20:54;;;;;;;13.93;13.13;;;;;;;12.28;100.00;100085.31;4999753;28;20021;-65
2022/10/03 03:23:31;;;;;;;14.10;13.30;;;;;;;12.31;100.00;100087.56;4996492;28;20124;-65
2022/10/03 03:26:15;;;;;;;13.40;12.70;;;;;;;12.28;100.00;100088.78;4995591;28;20073;-65
2022/10/03 03:28:58;;;;;;;13.97;13.17;;;;;;;12.37;100.00;100079.63;5002767;28;20030;-65
2022/10/03 03:31:53;;;;;;;13.27;12.57;;;;;;;12.31;100.00;100088.38;4994582;28;20505;-65
2022/10/03 03:34:21;;;;;;;13.20;12.50;;;;;;;12.36;100.00;100079.81;4997363;28;20030;-65
2022/10/03 03:37:22;;;;;;;13.57;12.88;;;;;;;12.30;100.00;100077.94;4993171;28;20039;-65
2022/10/03 03:40:12;;;;;;;14.43;13.52;;;;;;;12.37;100.00;100081.47;4965777;28;20401;-66
2022/10/03 03:42:47;;;;;;;13.30;12.60;;;;;;;12.40;100.00;100076.53;4988040;28;20034;-65
2022/10/03 03:45:44;;;;;;;14.10;13.27;;;;;;;12.34;100.00;100081.88;4996641;28;20085;-65
2022/10/03 03:48:36;;;;;;;13.40;12.70;;;;;;;12.34;100.00;100081.88;4989444;28;20076;-65
2022/10/03 03:51:12;;;;;;;14.73;13.77;;;;;;;12.20;100.00;100086.28;4992903;28;20038;-66
2022/10/03 03:53:53;;;;;;;13.88;13.07;;;;;;;12.38;100.00;100077.78;4991167;28;20049;-66
2022/10/03 03:56:44;;;;;;;13.93;13.13;;;;;;;12.38;100.00;100083.09;4991069;28;20426;-66
2022/10/03 03:59:22;;;;;;;14.13;13.27;;;;;;;12.42;100.00;100076.38;4990765;28;20033;-63
2022/10/03 04:02:12;;;;;;;13.70;12.90;;;;;;;12.50;100.00;100081.53;4996445;28;20040;-63
2022/10/03 04:04:55;;;;;;;13.40;12.70;;;;;;;12.53;100.00;100083.78;4994428;28;20037;-63
2022/10/03 04:07:29;;;;;;;13.90;13.10;;;;;;;12.60;100.00;100078.47;5002805;28;20026;-63
2022/10/03 04:10:24;;;;;;;13.85;13.05;;;;;;;12.59;100.00;100079.50;4991979;28;20388;-65
2022/10/03 04:13:04;;;;;;;;;;;;;;;12.52;100.00;100087.47;4998181;28;20413;-66
2022/10/03 04:15:49;;;;;;;14.57;13.68;;;;;;;12.37;100.00;100065.50;4989493;28;20300;-65
2022/10/03 04:18:58;;;;;;;14.00;13.20;;;;;;;12.34;100.00;100087.19;4995498;28;20026;-66
2022/10/03 04:22:10;;;;;;;14.43;13.60;;;;;;;12.36;100.00;100074.50;4996886;28;20450;-67
2022/10/03 04:25:01;;;;;;;14.85;13.95;;;;;;;12.39;100.00;100080.22;4980830;28;20042;-66
2022/10/03 04:27:48;;;;;;;13.90;13.10;;;;;;;12.50;100.00;100080.72;5000428;28;20026;-65
2022/10/03 04:30:44;;;;;;;13.90;13.10;;;;;;;12.45;100.00;100079.44;4995399;28;20489;-65
2022/10/03 04:33:42;;;;;;;14.40;13.55;;;;;;;12.49;100.00;100071.91;4983962;28;20108;-65
2022/10/03 04:36:32;;;;;;;14.50;13.60;;;;;;;12.61;100.00;100078.28;4991124;28;20058;-65
2022/10/03 04:39:03;;;;;;;14.50;13.63;;;;;;;12.68;100.00;100071.13;4995489;28;20081;-65
2022/10/03 04:42:14;;;;;;;14.80;13.90;;;;;;;12.64;100.00;100066.44;4998516;28;20046;-65
2022/10/03 04:45:03;;;;;;;14.73;13.82;;;;;;;12.81;100.00;100070.38;4935134;29;20046;-66
2022/10/03 04:47:43;;;;;;;14.70;13.80;;;;;;;12.91;100.00;100060.16;4999034;28;20061;-66
2022/10/03 04:50:19;;;;;;;13.93;13.13;;;;;;;12.98;100.00;100060.97;4990929;28;20481;-65
2022/10/03 04:52:47;;;;;;;14.13;13.32;;;;;;;13.02;100.00;100060.59;4996940;28;20026;-66
2022/10/03 04:55:22;;;;;;;14.65;13.75;;;;;;;13.15;100.00;100073.94;4996626;28;20041;-65
2022/10/03 04:58:02;;;;;;;;;;;;;;;13.19;100.00;100072.50;5001530;28;20581;-65
2022/10/03 05:00:32;;;;;;;14.43;13.52;;;;;;;13.22;100.00;100074.78;4990426;28;20017;-64
2022/10/03 05:02:58;;;;;;;14.73;13.82;;;;;;;13.43;100.00;100073.78;4991072;28;20038;-65
2022/10/03 05:05:57;;;;;;;14.70;13.80;;;;;;;13.42;100.00;100080.94;4996528;28;20045;-64
2022/10/03 05:08:58;;;;;;;13.93;13.13;;;;;;;13.33;100.00;100079.53;4963538;28;20449;-65
2022/10/03 05:11:49;;;;;;;14.80;13.90;;;;;;;13.40;100.00;100079.53;4996451;28;20088;-65
2022/10/03 05:14:36;;;;;;;14.73;13.82;;;;;;;13.38;100.00;100090.41;4992841;28;20022;-66
2022/10/03 05:17:19;;;;;;;13.80;13.00;;;;;;;13.35;100.00;100085.47;4999643;28;20029;-65
2022/10/03 05:20:12;;;;;;;14.95;14.05;;;;;;;13.31;100.00;100092.22;4996098;28;20014;-65
2022/10/03 05:22:59;;;;;;;14.63;13.73;;;;;;;13.25;100.00;100096.53;4992476;28;20037;-65
2022/10/03 05:25:53;;;;;;;14.23;13.43;;;;;;;13.27;100.00;100098.97;4997856;28;20026;-66
2022/10/03 05:28:37;;;;;;;14.95;14.05;;;;;;;13.27;100.00;100104.31;4995030;28;20026;-64
2022/10/03 05:31:15;;;;;;;13.67;12.90;;;;;;;13.12;100.00;100130.25;4993491;28;20567;-65
2022/10/03 05:34:02;;;;;;;14.35;13.52;;;;;;;13.08;100.00;100126.38;4990702;28;20034;-65
2022/10/03 05:36:40;;;;;;;13.52;12.82;;;;;;;13.25;100.00;100139.13;4998817;28;20046;-65
2022/10/03 05:39:36;;;;;;;14.02;13.23;;;;;;;13.12;100.00;100155.03;4996401;28;20029;-65
2022/10/03 05:42:23;;;;;;;14.38;13.55;;;;;;;13.25;100.00;100141.81;4995681;28;20041;-65
2022/10/03 05:45:23;;;;;;;13.90;13.10;;;;;;;13.38;100.00;100156.19;4998825;28;20024;-65
2022/10/03 05:47:55;;;;;;;13.95;13.15;;;;;;;13.55;100.00;100144.09;4996024;28;20448;-65
2022/10/03 05:50:40;;;;;;;14.73;13.82;;;;;;;13.60;100.00;100154.16;4993292;28;20032;-64
2022/10/03 05:53:27;;;;;;;13.80;13.00;;;;;;;13.78;100.00;100146.38;4993274;28;20180;-65
2022/10/03 05:56:03;;;;;;;14.07;13.27;;;;;;;13.72;100.00;100144.53;4993600;28;20038;-65
2022/10/03 05:58:28;;;;;;;14.50;13.63;;;;;;;13.80;100.00;100142.47;5003634;28;20029;-65
2022/10/03 06:01:22;;;;;;;13.27;12.57;;;;;;;13.98;100.00;100146.38;4996197;28;20110;-65
2022/10/03 06:04:22;;;;;;;15.07;14.18;;;;;;;13.87;100.00;100149.66;4994618;28;20030;-65
2022/10/03 06:06:56;;;;;;;15.35;14.40;;;;;;;13.97;100.00;100164.22;4994484;28;20041;-65
2022/10/03 06:09:33;;;;;;;13.88;13.07;;;;;;;13.91;100.00;100158.91;4994619;28;20470;-64
2022/10/03 06:12:19;;;;;;;14.43;13.57;;;;;;;14.04;100.00;100172.22;4996925;28;20034;-64
2022/10/03 06:15:12;;;;;;;13.82;13.02;;;;;;;14.26;100.00;100178.16;4996481;28;20037;-65
2022/10/03 06:17:56;;;;;;;13.77;13.02;;;;;;;14.41;100.00;100181.44;4995439;28;20026;-63
2022/10/03 06:20:35;;;;;;;12.57;11.98;;;;;;;13.73;100.00;100168.31;4997303;28;20027;-66
2022/10/03 06:23:31;;;;;;;14.38;13.52;;;;;;;14.25;100.00;100182.69;4997671;28;20041;-65
2022/10/03 06:26:19;;;;;;;13.27;12.57;;;;;;;14.66;100.00;100189.59;5000249;28;20480;-65
2022/10/03 06:29:03;;;;;;;13.43;12.73;;;;;;;14.70;100.00;100190.84;4994040;28;20113;-64
2022/10/03 06:32:07;;;;;;;13.57;12.85;;;;;;;14.54;100.00;100194.78;4993391;28;20077;-64
2022/10/03 06:34:45;;;;;;;13.32;12.63;;;;;;;14.84;100.00;100199.63;4996964;28;20033;-64
2022/10/03 06:37:34;;;;;;;14.20;13.40;;;;;;;14.73;100.00;100195.75;4993089;28;20050;-65
2022/10/03 06:40:30;;;;;;;13.98;13.18;;;;;;;14.48;100.00;100198.28;4997940;28;20037;-65
2022/10/03 06:43:15;;;;;;;14.27;13.50;;;;;;;14.57;100.00;100205.03;4988960;28;20038;-65
2022/10/03 06:46:34;;;;;;;13.43;12.73;;;;;;;14.55;100.00;100204.44;5059962;28;20563;-66
2022/10/03 06:49:03;;;;;;;16.13;15.13;;;;;;;14.56;100.00;100207.91;5035216;28;20122;-67
2022/10/03 06:51:47;;;;;;;13.98;13.18;;;;;;;14.46;100.00;100211.00;5043388;28;20104;-68
2022/10/03 06:54:40;;;;;;;13.85;13.10;;;;;;;14.26;100.00;100215.53;5039662;28;20346;-66
2022/10/03 06:57:28;;;;;;;13.00;12.38;;;;;;;14.18;100.00;100219.22;5039826;28;20059;-66
2022/10/03 07:00:14;;;;;;;12.70;12.10;;;;;;;14.22;100.00;100211.63;5042098;28;20425;-66
2022/10/03 07:03:01;;;;;;;13.15;12.45;;;;;;;14.25;100.00;100213.88;5040302;28;20040;-66
2022/10/03 07:05:59;;;;;;;13.73;12.98;;;;;;;14.28;100.00;100219.63;5035879;28;20614;-67
2022/10/03 07:08:52;;;;;;;13.90;13.10;;;;;;;14.16;100.00;100218.59;5041594;28;20033;-67
2022/10/03 07:11:25;;;;;;;13.15;12.52;;;;;;;14.21;100.00;100212.66;5039009;28;20048;-66
2022/10/03 07:13:50;;;;;;;14.40;13.57;;;;;;;14.10;100.00;100219.41;5041978;28;20030;-67
2022/10/03 07:16:42;;;;;;;14.18;13.38;;;;;;;14.24;100.00;100214.88;5044492;28;20037;-67
2022/10/03 07:19:21;;;;;;;13.40;12.70;;;;;;;14.24;100.00;100217.56;5026181;28;20048;-67
2022/10/03 07:22:07;;;;;;;14.00;13.23;;;;;;;13.92;100.00;100212.03;5039254;28;20447;-66
2022/10/03 07:25:04;;;;;;;13.38;12.68;;;;;;;14.21;100.00;100213.47;5037601;28;20033;-67
2022/10/03 07:27:48;;;;;;;13.73;13.02;;;;;;;14.09;100.00;100215.91;5039374;28;20065;-66
2022/10/03 07:30:13;;;;;;;14.23;13.43;;;;;;;14.09;100.00;100218.56;5038786;28;20033;-65
2022/10/03 07:32:39;;;;;;;13.77;13.00;;;;;;;14.03;100.00;100218.59;5043389;28;20018;-66
2022/10/03 07:35:22;;;;;;;13.35;12.65;;;;;;;14.19;100.00;100220.03;5038641;28;20029;-66
2022/10/03 07:41:13;;;;;;;;;;;;;;;13.95;100.00;100243.59;5038403;28;20113;-67
2022/10/03 07:43:57;;;;;;;14.25;13.45;;;;;;;13.87;100.00;100250.97;5044343;28;19921;-67
2022/10/03 07:46:35;;;;;;;14.50;13.63;;;;;;;13.79;100.00;100250.16;5042616;28;20048;-67
2022/10/03 07:49:00;;;;;;;14.00;13.20;;;;;;;13.76;100.00;100249.75;5036750;28;20033;-67
2022/10/03 07:52:02;;;;;;;14.25;13.45;;;;;;;13.82;100.00;100260.41;5044222;28;20377;-66
2022/10/03 07:54:47;;;;;;;14.10;13.30;;;;;;;13.68;100.00;100261.41;5040175;28;20325;-68
2022/10/03 07:57:23;;;;;;;14.30;13.50;;;;;;;13.60;100.00;100250.94;5025550;28;20031;-67
2022/10/03 07:59:57;;;;;;;13.57;12.82;;;;;;;13.66;100.00;100257.28;5028186;28;20435;-67
2022/10/03 08:03:00;;;;;;;15.30;14.38;;;;;;;13.70;100.00;100255.88;5023715;28;20030;-68
2022/10/03 08:05:38;;;;;;;14.60;13.70;;;;;;;13.50;100.00;100258.47;5020291;28;20029;-65
2022/10/03 08:08:32;;;;;;;14.18;13.38;;;;;;;13.41;100.00;100257.03;5030005;28;20030;-68
2022/10/03 08:11:09;;;;;;;14.65;13.85;;;;;;;13.34;100.00;100254.31;5021101;28;20557;-68
2022/10/03 08:13:59;;;;;;;15.85;14.85;;;;;;;13.23;100.00;100246.91;5025271;28;20025;-68
2022/10/03 08:16:37;;;;;;;14.00;13.20;;;;;;;13.54;100.00;100241.91;5024662;28;20033;-66
2022/10/03 08:19:45;;;;;;;13.75;13.05;;;;;;;14.25;100.00;100246.72;5023260;28;21365;-65
2022/10/03 08:22:24;;;;;;;13.48;12.77;;;;;;;14.74;100.00;100233.94;5030930;28;20567;-67
2022/10/03 08:25:18;;;;;;;13.55;12.85;;;;;;;14.48;100.00;100222.31;5032142;28;20121;-66
2022/10/03 08:28:22;;;;;;;13.35;12.65;;;;;;;15.10;100.00;100233.44;5020142;28;20030;-67
2022/10/03 08:31:09;;;;;;;13.90;13.10;;;;;;;14.54;100.00;100224.16;4997121;28;20183;-68
2022/10/03 08:33:40;;;;;;;13.70;12.95;;;;;;;14.82;100.00;100229.19;5023770;28;20032;-66
2022/10/03 08:36:44;;;;;;;13.57;12.88;;;;;;;14.32;100.00;100231.53;5021226;28;20120;-66
2022/10/03 08:39:09;;;;;;;13.48;12.77;;;;;;;14.28;100.00;100243.63;5020356;28;20496;-67
2022/10/03 08:41:59;;;;;;;13.48;12.77;;;;;;;14.50;100.00;100243.44;5027654;28;20050;-67
2022/10/03 08:44:40;;;;;;;13.95;13.18;;;;;;;15.08;100.00;100241.66;5045821;28;20069;-67
2022/10/03 08:47:15;;;;;;;13.70;13.00;;;;;;;14.86;100.00;100232.28;5027963;28;20025;-68
2022/10/03 08:50:05;;;;;;;14.40;13.60;;;;;;;14.47;100.00;100234.00;5025273;28;20737;-66
2022/10/03 08:52:43;;;;;;;13.48;12.77;;;;;;;15.11;100.00;100229.72;5027008;28;20164;-66
2022/10/03 08:55:23;;;;;;;14.38;13.57;;;;;;;14.79;100.00;100223.47;5027915;28;20014;-67
2022/10/03 08:58:03;;;;;;;13.73;13.00;;;;;;;14.98;100.00;100222.56;5027423;28;20033;-67
2022/10/03 09:00:58;;;;;;;13.85;13.13;;;;;;;15.20;100.00;100229.28;5029593;28;20048;-67
2022/10/03 09:03:35;;;;;;;;;;;;;;;14.69;100.00;100217.72;5024664;28;20026;-65
2022/10/03 09:06:08;;;;;;;14.13;13.32;;;;;;;15.54;100.00;100227.25;5030087;28;19956;-66
2022/10/03 09:08:50;;;;;;;13.40;12.70;;;;;;;15.36;100.00;100219.97;5029678;28;20496;-68
2022/10/03 09:11:55;;;;;;;12.77;12.18;;;;;;;15.81;100.00;100219.13;5027611;28;20041;-67
2022/10/03 09:14:40;;;;;;;14.73;13.88;;;;;;;16.52;100.00;100221.38;5030206;28;20087;-65
2022/10/03 09:17:33;;;;;;;13.43;12.73;;;;;;;16.33;100.00;100212.53;5024568;28;20034;-68
2022/10/03 09:20:31;;;;;;;14.20;13.40;;;;;;;15.98;100.00;100214.88;5023629;28;20021;-68
2022/10/03 09:23:15;;;;;;;13.68;12.98;;;;;;;16.56;100.00;100214.56;5016898;28;20037;-66
2022/10/03 09:26:05;;;;;;;13.35;12.65;;;;;;;16.95;100.00;100221.38;5024233;28;20057;-67
2022/10/03 09:28:49;;;;;;;14.30;13.50;;;;;;;16.92;100.00;100216.47;5028446;28;20029;-66
2022/10/03 09:31:36;;;;;;;13.88;13.10;;;;;;;16.89;100.00;100216.91;5026427;28;20167;-66
2022/10/03 09:34:20;;;;;;;14.75;13.85;;;;;;;16.68;100.00;100212.81;5024483;28;20384;-65
2022/10/03 09:37:04;;;;;;;13.32;12.63;;;;;;;16.65;100.00;100207.88;5023025;28;20504;-66
2022/10/03 09:39:50;;;;;;;13.32;12.63;;;;;;;16.88;100.00;100201.88;5025553;28;20065;-67
2022/10/03 09:42:37;;;;;;;13.43;12.73;;;;;;;16.19;100.00;100192.25;5024976;28;20035;-67
2022/10/03 09:45:44;;;;;;;14.18;13.38;;;;;;;16.30;100.00;100189.69;5025673;28;20128;-68
2022/10/03 09:48:22;;;;;;;14.23;13.43;;;;;;;16.59;100.00;100184.66;5019915;28;20037;-67
2022/10/03 09:50:59;;;;;;;13.70;13.00;;;;;;;17.38;100.00;100180.22;5028563;28;20036;-66
2022/10/03 09:54:02;;;;;;;13.00;12.40;;;;;;;17.63;100.00;100178.22;5025626;28;20049;-66
2022/10/03 09:56:30;;;;;;;13.38;12.68;;;;;;;17.33;100.00;100172.88;5020822;28;20503;-66
2022/10/03 09:59:04;;;;;;;14.20;13.40;;;;;;;17.43;100.00;100182.22;5021625;28;20025;-67
2022/10/03 10:01:42;;;;;;;14.18;13.43;;;;;;;17.52;100.00;100167.44;5024305;28;20036;-66
2022/10/03 10:04:45;;;;;;;14.15;13.35;;;;;;;17.55;100.00;100169.66;5020475;28;20033;-67
2022/10/03 10:07:34;;;;;;;13.57;12.88;;;;;;;18.16;100.00;100152.41;5020700;28;20034;-66
2022/10/03 10:10:16;;;;;;;16.27;15.27;;;;;;;17.71;100.00;100144.91;5024404;28;20025;-67
2022/10/03 10:13:11;;;;;;;14.10;13.30;;;;;;;17.40;100.00;100149.44;5021115;28;20057;-69
2022/10/03 10:15:36;;;;;;;;;;;;;;;17.29;100.00;100155.59;5022406;28;20484;-66
2022/10/03 10:18:42;;;;;;;14.15;13.35;;;;;;;17.43;100.00;100145.50;5023041;28;19952;-66
2022/10/03 10:21:34;;;;;;;15.15;14.25;;;;;;;17.52;100.00;100135.25;5020846;28;20064;-66
2022/10/03 10:24:57;;;;;;;14.52;13.73;;;;;;;16.87;100.00;100145.84;5018056;28;20076;-66
2022/10/03 10:28:04;;;;;;;13.90;13.15;;;;;;;16.73;100.00;100137.97;4982328;28;20038;-65
2022/10/03 10:30:29;;;;;;;14.32;13.52;;;;;;;16.76;100.00;100134.84;4986010;28;20037;-65
2022/10/03 10:33:29;;;;;;;14.25;13.45;;;;;;;16.96;100.00;100131.91;5011655;28;20038;-66
2022/10/03 10:36:32;;;;;;;14.23;13.43;;;;;;;16.80;100.00;100125.31;5017415;28;20449;-66
2022/10/03 10:39:00;;;;;;;14.10;13.30;;;;;;;16.94;100.00;100133.19;4977914;28;20077;-65
2022/10/03 10:41:47;;;;;;;14.88;14.00;;;;;;;16.65;100.00;100116.81;5008346;28;20044;-67
2022/10/03 10:44:31;;;;;;;15.32;14.43;;;;;;;16.68;100.00;100108.34;5039387;28;20463;-66
2022/10/03 10:47:17;;;;;;;15.10;14.20;;;;;;;17.17;100.00;100106.47;5019828;28;20213;-68
2022/10/03 10:50:20;;;;;;;14.35;13.55;;;;;;;17.13;100.00;100100.78;4996767;28;20813;-67
2022/10/03 10:53:22;;;;;;;14.10;13.30;;;;;;;17.25;100.00;100100.78;5023249;28;20029;-68
2022/10/03 10:56:26;;;;;;;13.45;12.75;;;;;;;17.02;100.00;100103.41;5026422;28;20013;-67
2022/10/03 10:59:12;;;;;;;14.25;13.45;;;;;;;17.11;100.00;100086.78;5023075;28;20183;-68
2022/10/03 11:01:50;;;;;;;12.70;12.10;;;;;;;17.20;100.00;100086.47;5020602;28;20033;-68
2022/10/03 11:04:53;;;;;;;13.32;12.63;;;;;;;17.16;100.00;100096.81;5025821;28;20554;-67
2022/10/03 11:08:03;;;;;;;15.00;14.10;;;;;;;17.65;100.00;100087.59;5027451;28;20040;-66
2022/10/03 11:10:43;;;;;;;14.30;13.50;;;;;;;17.77;100.00;100089.47;5007367;28;20035;-67
2022/10/03 11:13:30;;;;;;;14.00;13.20;;;;;;;18.21;100.00;100091.59;5024152;28;20017;-67
2022/10/03 11:16:20;;;;;;;13.10;12.40;;;;;;;18.38;100.00;100094.38;5025163;28;20492;-67
2022/10/03 11:19:10;;;;;;;13.52;12.82;;;;;;;18.45;100.00;100097.75;5021612;28;20037;-67
2022/10/03 11:21:38;;;;;;;12.80;12.15;;;;;;;18.89;100.00;100098.13;5026438;28;20033;-67
2022/10/03 11:24:38;;;;;;;13.48;12.77;;;;;;;18.49;100.00;100090.81;5027485;28;20116;-67
2022/10/03 11:27:54;;;;;;;13.07;12.38;;;;;;;18.23;100.00;100089.50;5026355;28;20025;-67
2022/10/03 11:30:40;;;;;;;14.27;13.48;;;;;;;17.95;100.00;100090.19;4986425;28;20432;-66
2022/10/03 11:33:11;;;;;;;13.48;12.77;;;;;;;17.58;100.00;100096.78;4989589;28;20117;-66
2022/10/03 11:35:39;;;;;;;14.05;13.25;;;;;;;17.67;100.00;100096.22;5016460;28;20084;-67
2022/10/03 11:38:14;;;;;;;13.38;12.68;;;;;;;17.76;100.00;100080.63;5026619;28;20049;-67
2022/10/03 11:40:55;;;;;;;14.15;13.35;;;;;;;18.18;100.00;100077.81;5027653;28;20025;-67
2022/10/03 11:43:21;;;;;;;13.73;13.02;;;;;;;18.66;100.00;100068.66;5026690;28;20507;-67
2022/10/03 11:45:54;;;;;;;13.48;12.77;;;;;;;18.03;100.00;100069.44;5027594;28;20114;-67
2022/10/03 11:48:37;;;;;;;13.07;12.40;;;;;;;17.83;100.00;100070.59;5027226;28;20029;-68
2022/10/03 11:51:10;;;;;;;13.32;12.63;;;;;;;17.59;100.00;100075.09;5030954;28;20029;-68
2022/10/03 11:54:08;;;;;;;13.57;12.88;;;;;;;17.36;100.00;100061.66;5024045;28;20179;-67
2022/10/03 11:56:36;;;;;;;13.13;12.48;;;;;;;17.15;100.00;100068.38;5024880;28;20420;-67
2022/10/03 11:59:28;;;;;;;13.48;12.77;;;;;;;16.84;100.00;100064.06;5024934;28;20037;-66
2022/10/03 12:02:25;;;;;;;13.25;12.55;;;;;;;16.89;100.00;100066.06;5028950;28;20030;-68
2022/10/03 12:05:22;;;;;;;13.63;12.93;;;;;;;16.61;100.00;100050.56;5024212;28;20033;-68
2022/10/03 12:11:13;;;;;;;13.77;13.07;;;;;;;16.74;100.00;100053.06;5026423;28;20117;-66
2022/10/03 12:13:57;;;;;;;13.75;13.05;;;;;;;16.87;100.00;100050.22;5025528;28;20038;-67
2022/10/03 12:16:29;;;;;;;13.27;12.57;;;;;;;16.98;100.00;100045.97;5026085;28;20131;-68
2022/10/03 12:19:29;;;;;;;13.63;12.93;;;;;;;17.15;100.00;100040.75;5021588;28;20477;-67
2022/10/03 12:22:13;;;;;;;13.18;12.50;;;;;;;17.33;100.00;100035.28;5021703;28;20450;-68
2022/10/03 12:24:44;;;;;;;13.23;12.52;;;;;;;17.11;100.00;100032.34;5031214;28;20508;-67
2022/10/03 12:27:28;;;;;;;13.75;13.05;;;;;;;17.32;100.00;100030.97;5023099;28;20030;-67
2022/10/03 12:30:03;;;;;;;13.27;12.57;;;;;;;17.03;100.00;100044.19;5022243;28;20041;-68
2022/10/03 12:32:59;;;;;;;13.93;13.15;;;;;;;17.16;100.00;100035.16;5028382;28;20033;-69
2022/10/03 12:35:54;;;;;;;13.05;12.40;;;;;;;17.18;100.00;100042.97;5024925;28;20029;-67